sensor_id;sensor_type;location;lat;lon;timestamp;pressure;altitude;pressure_sealevel;temperature;humidity
74675;BME280;63200;48.810;12.352;2022-11-22T00:01:56;95712.84;;;1.16;77.37
74675;BME280;63200;48.810;12.352;2022-11-22T00:04:21;95693.63;;;1.14;77.83
74675;BME280;63200;48.810;12.352;2022-11-22T00:06:47;95698.41;;;1.12;77.67
74675;BME280;63200;48.810;12.352;2022-11-22T00:09:12;95699.19;;;1.12;78.00
74675;BME280;63200;48.810;12.352;2022-11-22T00:11:37;95691.72;;;1.14;77.68
74675;BME280;63200;48.810;12.352;2022-11-22T00:14:03;95664.22;;;0.88;77.66
74675;BME280;63200;48.810;12.352;2022-11-22T00:16:28;95663.94;;;0.85;77.99
74675;BME280;63200;48.810;12.352;2022-11-22T00:18:53;95695.72;;;1.02;77.79
74675;BME280;63200;48.810;12.352;2022-11-22T00:21:18;95685.84;;;0.92;78.64
74675;BME280;63200;48.810;12.352;2022-11-22T00:23:44;95705.09;;;0.94;78.44
74675;BME280;63200;48.810;12.352;2022-11-22T00:26:09;95697.59;;;0.91;78.51
74675;BME280;63200;48.810;12.352;2022-11-22T00:28:37;95698.66;;;0.90;78.61
74675;BME280;63200;48.810;12.352;2022-11-22T00:31:03;95700.00;;;0.87;78.53
74675;BME280;63200;48.810;12.352;2022-11-22T00:33:28;95699.19;;;0.81;78.90
74675;BME280;63200;48.810;12.352;2022-11-22T00:35:54;95714.16;;;0.77;78.92
74675;BME280;63200;48.810;12.352;2022-11-22T00:38:19;95721.38;;;0.77;78.53
74675;BME280;63200;48.810;12.352;2022-11-22T00:40:44;95722.72;;;0.74;78.94
74675;BME280;63200;48.810;12.352;2022-11-22T00:43:10;95671.66;;;0.50;78.49
74675;BME280;63200;48.810;12.352;2022-11-22T00:45:35;95697.03;;;0.63;78.40
74675;BME280;63200;48.810;12.352;2022-11-22T00:48:00;95698.66;;;0.69;78.39
74675;BME280;63200;48.810;12.352;2022-11-22T00:50:26;95698.66;;;0.69;78.38
74675;BME280;63200;48.810;12.352;2022-11-22T00:52:51;95688.75;;;0.64;78.60
74675;BME280;63200;48.810;12.352;2022-11-22T00:55:16;95683.72;;;0.73;78.50
74675;BME280;63200;48.810;12.352;2022-11-22T00:57:41;95693.06;;;0.76;78.38
74675;BME280;63200;48.810;12.352;2022-11-22T01:00:07;95689.34;;;0.77;78.57
74675;BME280;63200;48.810;12.352;2022-11-22T01:02:33;95689.06;;;0.73;78.83
74675;BME280;63200;48.810;12.352;2022-11-22T01:04:58;95648.72;;;0.64;78.15
74675;BME280;63200;48.810;12.352;2022-11-22T01:07:24;95673.03;;;0.94;78.01
74675;BME280;63200;48.810;12.352;2022-11-22T01:09:49;95674.63;;;1.05;77.05
74675;BME280;63200;48.810;12.352;2022-11-22T01:12:14;95647.13;;;0.79;77.63
74675;BME280;63200;48.810;12.352;2022-11-22T01:14:39;95696.28;;;0.93;77.49
74675;BME280;63200;48.810;12.352;2022-11-22T01:17:05;95682.91;;;0.78;77.75
74675;BME280;63200;48.810;12.352;2022-11-22T01:19:30;95702.16;;;0.80;77.78
74675;BME280;63200;48.810;12.352;2022-11-22T01:21:56;95714.69;;;0.64;77.81
74675;BME280;63200;48.810;12.352;2022-11-22T01:24:21;95679.84;;;0.12;77.75
74675;BME280;63200;48.810;12.352;2022-11-22T01:26:47;95710.81;;;0.19;78.38
74675;BME280;63200;48.810;12.352;2022-11-22T01:29:12;95667.75;;;-0.11;78.07
74675;BME280;63200;48.810;12.352;2022-11-22T01:31:38;95727.09;;;0.22;78.48
74675;BME280;63200;48.810;12.352;2022-11-22T01:34:04;95723.09;;;0.25;78.91
74675;BME280;63200;48.810;12.352;2022-11-22T01:36:29;95727.38;;;0.26;79.07
74675;BME280;63200;48.810;12.352;2022-11-22T01:38:54;95719.34;;;0.15;78.63
74675;BME280;63200;48.810;12.352;2022-11-22T01:41:20;95732.63;;;0.05;78.18
74675;BME280;63200;48.810;12.352;2022-11-22T01:43:45;95734.19;;;-0.04;78.70
74675;BME280;63200;48.810;12.352;2022-11-22T01:46:37;95747.50;;;-0.14;78.55
74675;BME280;63200;48.810;12.352;2022-11-22T01:49:10;95752.34;;;-0.06;78.73
74675;BME280;63200;48.810;12.352;2022-11-22T01:51:40;95757.13;;;-0.03;79.13
74675;BME280;63200;48.810;12.352;2022-11-22T01:54:10;95736.88;;;0.01;79.17
74675;BME280;63200;48.810;12.352;2022-11-22T01:56:38;95699.41;;;-0.30;78.98
74675;BME280;63200;48.810;12.352;2022-11-22T01:59:10;95746.53;;;0.07;78.76
74675;BME280;63200;48.810;12.352;2022-11-22T02:01:37;95743.03;;;0.02;78.50
74675;BME280;63200;48.810;12.352;2022-11-22T02:04:03;95732.56;;;-0.10;77.85
74675;BME280;63200;48.810;12.352;2022-11-22T02:06:50;95741.00;;;-0.29;78.00
74675;BME280;63200;48.810;12.352;2022-11-22T02:09:19;95735.66;;;-0.34;78.46
74675;BME280;63200;48.810;12.352;2022-11-22T02:11:49;95734.09;;;-0.25;78.60
74675;BME280;63200;48.810;12.352;2022-11-22T02:14:18;95721.88;;;-0.15;77.22
74675;BME280;63200;48.810;12.352;2022-11-22T02:16:46;95697.69;;;-0.52;77.52
74675;BME280;63200;48.810;12.352;2022-11-22T02:19:15;95719.66;;;-0.34;78.28
74675;BME280;63200;48.810;12.352;2022-11-22T02:21:44;95715.69;;;-0.26;77.97
74675;BME280;63200;48.810;12.352;2022-11-22T02:24:18;95721.28;;;-0.23;77.91
74675;BME280;63200;48.810;12.352;2022-11-22T02:26:46;95706.34;;;-0.29;78.17
74675;BME280;63200;48.810;12.352;2022-11-22T02:29:11;95709.28;;;-0.25;78.78
74675;BME280;63200;48.810;12.352;2022-11-22T02:31:43;95710.63;;;-0.23;78.82
74675;BME280;63200;48.810;12.352;2022-11-22T02:34:10;95708.22;;;-0.24;79.07
74675;BME280;63200;48.810;12.352;2022-11-22T02:36:42;95695.22;;;-0.15;79.17
74675;BME280;63200;48.810;12.352;2022-11-22T02:39:11;95697.09;;;-0.11;79.18
74675;BME280;63200;48.810;12.352;2022-11-22T02:41:38;95701.09;;;-0.08;79.30
74675;BME280;63200;48.810;12.352;2022-11-22T02:44:05;95701.66;;;-0.06;79.46
74675;BME280;63200;48.810;12.352;2022-11-22T02:46:32;95701.91;;;-0.08;78.97
74675;BME280;63200;48.810;12.352;2022-11-22T02:48:57;95713.91;;;-0.10;79.19
74675;BME280;63200;48.810;12.352;2022-11-22T02:51:22;95700.56;;;-0.10;79.08
74675;BME280;63200;48.810;12.352;2022-11-22T02:53:49;95711.25;;;-0.10;79.69
74675;BME280;63200;48.810;12.352;2022-11-22T02:56:16;95716.00;;;-0.12;79.42
74675;BME280;63200;48.810;12.352;2022-11-22T02:58:42;95713.34;;;-0.12;79.26
74675;BME280;63200;48.810;12.352;2022-11-22T03:01:07;95713.91;;;-0.10;79.28
74675;BME280;63200;48.810;12.352;2022-11-22T03:03:32;95717.59;;;-0.17;79.14
74675;BME280;63200;48.810;12.352;2022-11-22T03:05:58;95717.03;;;-0.19;79.29
74675;BME280;63200;48.810;12.352;2022-11-22T03:08:23;95716.81;;;-0.17;79.44
74675;BME280;63200;48.810;12.352;2022-11-22T03:10:48;95717.56;;;-0.22;79.53
74675;BME280;63200;48.810;12.352;2022-11-22T03:13:14;95727.44;;;-0.22;79.85
74675;BME280;63200;48.810;12.352;2022-11-22T03:15:39;95720.53;;;-0.18;79.80
74675;BME280;63200;48.810;12.352;2022-11-22T03:18:05;95718.13;;;-0.20;79.70
74675;BME280;63200;48.810;12.352;2022-11-22T03:20:31;95722.66;;;-0.15;79.63
74675;BME280;63200;48.810;12.352;2022-11-22T03:22:59;95720.03;;;-0.10;79.53
74675;BME280;63200;48.810;12.352;2022-11-22T03:25:25;95723.75;;;-0.11;79.58
74675;BME280;63200;48.810;12.352;2022-11-22T03:27:51;95734.75;;;-0.02;79.88
74675;BME280;63200;48.810;12.352;2022-11-22T03:30:16;95723.81;;;-0.01;79.38
74675;BME280;63200;48.810;12.352;2022-11-22T03:32:41;95728.13;;;0.11;79.52
74675;BME280;63200;48.810;12.352;2022-11-22T03:35:07;95695.22;;;-0.10;79.47
74675;BME280;63200;48.810;12.352;2022-11-22T03:37:33;95733.72;;;0.14;78.95
74675;BME280;63200;48.810;12.352;2022-11-22T03:39:58;95734.00;;;0.13;79.00
74675;BME280;63200;48.810;12.352;2022-11-22T03:42:23;95739.63;;;0.16;78.87
74675;BME280;63200;48.810;12.352;2022-11-22T03:44:48;95705.94;;;-0.05;78.80
74675;BME280;63200;48.810;12.352;2022-11-22T03:47:14;95744.69;;;0.18;79.10
74675;BME280;63200;48.810;12.352;2022-11-22T03:49:39;95747.38;;;0.23;79.31
74675;BME280;63200;48.810;12.352;2022-11-22T03:52:04;95748.97;;;0.19;79.21
74675;BME280;63200;48.810;12.352;2022-11-22T03:54:30;95748.72;;;0.21;79.07
74675;BME280;63200;48.810;12.352;2022-11-22T03:56:55;95746.59;;;0.23;78.93
74675;BME280;63200;48.810;12.352;2022-11-22T03:59:20;95745.56;;;0.34;79.47
74675;BME280;63200;48.810;12.352;2022-11-22T04:01:46;95750.41;;;0.47;78.83
74675;BME280;63200;48.810;12.352;2022-11-22T04:04:11;95748.28;;;0.49;78.88
74675;BME280;63200;48.810;12.352;2022-11-22T04:06:36;95717.78;;;0.30;79.58
74675;BME280;63200;48.810;12.352;2022-11-22T04:09:03;95749.91;;;0.56;79.63
74675;BME280;63200;48.810;12.352;2022-11-22T04:11:28;95752.84;;;0.64;79.32
74675;BME280;63200;48.810;12.352;2022-11-22T04:13:54;95764.06;;;0.56;78.58
74675;BME280;63200;48.810;12.352;2022-11-22T04:16:37;95758.97;;;0.55;79.05
74675;BME280;63200;48.810;12.352;2022-11-22T04:19:03;95745.91;;;0.53;79.75
74675;BME280;63200;48.810;12.352;2022-11-22T04:21:28;95746.69;;;0.54;80.05
74675;BME280;63200;48.810;12.352;2022-11-22T04:26:48;95755.25;;;0.56;79.56
74675;BME280;63200;48.810;12.352;2022-11-22T04:29:14;95751.25;;;0.53;80.13
74675;BME280;63200;48.810;12.352;2022-11-22T04:31:39;95732.53;;;0.48;80.27
74675;BME280;63200;48.810;12.352;2022-11-22T04:34:23;95747.22;;;0.51;80.11
74675;BME280;63200;48.810;12.352;2022-11-22T04:36:49;95734.38;;;0.47;80.26
74675;BME280;63200;48.810;12.352;2022-11-22T04:39:14;95745.91;;;0.53;79.96
74675;BME280;63200;48.810;12.352;2022-11-22T04:41:39;95741.59;;;0.47;80.63
74675;BME280;63200;48.810;12.352;2022-11-22T04:44:04;95747.75;;;0.53;80.18
74675;BME280;63200;48.810;12.352;2022-11-22T04:46:48;95749.91;;;0.61;80.42
74675;BME280;63200;48.810;12.352;2022-11-22T04:49:13;95748.84;;;0.67;80.52
74675;BME280;63200;48.810;12.352;2022-11-22T04:51:39;95719.97;;;0.48;80.26
74675;BME280;63200;48.810;12.352;2022-11-22T04:54:22;95750.19;;;0.70;80.58
74675;BME280;63200;48.810;12.352;2022-11-22T04:56:48;95748.06;;;0.72;79.94
74675;BME280;63200;48.810;12.352;2022-11-22T04:59:13;95746.75;;;0.74;79.92
74675;BME280;63200;48.810;12.352;2022-11-22T05:01:38;95746.75;;;0.79;80.08
74675;BME280;63200;48.810;12.352;2022-11-22T05:04:04;95745.16;;;0.83;80.09
74675;BME280;63200;48.810;12.352;2022-11-22T05:06:29;95731.50;;;0.75;79.91
74675;BME280;63200;48.810;12.352;2022-11-22T05:08:54;95748.09;;;0.87;79.57
74675;BME280;63200;48.810;12.352;2022-11-22T05:11:20;95745.16;;;0.83;79.86
74675;BME280;63200;48.810;12.352;2022-11-22T05:13:45;95734.19;;;0.75;79.87
74675;BME280;63200;48.810;12.352;2022-11-22T05:16:13;95737.94;;;0.79;80.13
74675;BME280;63200;48.810;12.352;2022-11-22T05:18:39;95737.66;;;0.75;79.94
74675;BME280;63200;48.810;12.352;2022-11-22T05:23:30;95748.09;;;0.77;80.14
74675;BME280;63200;48.810;12.352;2022-11-22T05:26:14;95734.47;;;0.73;79.72
74675;BME280;63200;48.810;12.352;2022-11-22T05:28:39;95738.19;;;0.77;80.18
74675;BME280;63200;48.810;12.352;2022-11-22T05:31:15;95748.34;;;0.80;79.95
74675;BME280;63200;48.810;12.352;2022-11-22T05:33:43;95723.50;;;0.70;80.02
74675;BME280;63200;48.810;12.352;2022-11-22T05:36:10;95738.47;;;0.76;79.96
74675;BME280;63200;48.810;12.352;2022-11-22T05:38:36;95706.38;;;0.55;80.17
74675;BME280;63200;48.810;12.352;2022-11-22T05:41:04;95712.50;;;0.61;79.58
74675;BME280;63200;48.810;12.352;2022-11-22T05:43:30;95757.44;;;0.90;79.68
74675;BME280;63200;48.810;12.352;2022-11-22T05:46:02;95764.41;;;0.96;79.29
74675;BME280;63200;48.810;12.352;2022-11-22T05:48:28;95770.53;;;0.91;79.53
74675;BME280;63200;48.810;12.352;2022-11-22T05:50:53;95742.47;;;0.73;79.65
74675;BME280;63200;48.810;12.352;2022-11-22T05:53:18;95763.03;;;0.78;79.83
74675;BME280;63200;48.810;12.352;2022-11-22T05:55:44;95771.59;;;0.80;79.92
74675;BME280;63200;48.810;12.352;2022-11-22T05:58:09;95781.50;;;0.95;79.63
74675;BME280;63200;48.810;12.352;2022-11-22T06:00:34;95779.66;;;0.95;79.76
74675;BME280;63200;48.810;12.352;2022-11-22T06:03:01;95774.28;;;0.80;79.59
74675;BME280;63200;48.810;12.352;2022-11-22T06:05:27;95788.16;;;0.92;79.86
74675;BME280;63200;48.810;12.352;2022-11-22T06:07:52;95798.06;;;0.92;80.00
74675;BME280;63200;48.810;12.352;2022-11-22T06:10:17;95805.03;;;0.93;80.11
74675;BME280;63200;48.810;12.352;2022-11-22T06:12:43;95794.84;;;0.95;79.58
74675;BME280;63200;48.810;12.352;2022-11-22T06:15:09;95800.19;;;0.95;80.27
74675;BME280;63200;48.810;12.352;2022-11-22T06:17:34;95734.69;;;0.56;80.13
74675;BME280;63200;48.810;12.352;2022-11-22T06:20:00;95792.75;;;0.97;80.63
74675;BME280;63200;48.810;12.352;2022-11-22T06:22:25;95788.72;;;0.89;80.89
74675;BME280;63200;48.810;12.352;2022-11-22T06:24:50;95798.88;;;0.97;80.24
74675;BME280;63200;48.810;12.352;2022-11-22T06:27:16;95789.53;;;1.00;80.10
74675;BME280;63200;48.810;12.352;2022-11-22T06:29:41;95791.66;;;1.03;80.44
74675;BME280;63200;48.810;12.352;2022-11-22T06:32:06;95734.44;;;0.63;80.21
74675;BME280;63200;48.810;12.352;2022-11-22T06:34:32;95781.81;;;1.09;80.22
74675;BME280;63200;48.810;12.352;2022-11-22T06:36:57;95785.81;;;1.11;80.10
74675;BME280;63200;48.810;12.352;2022-11-22T06:39:22;95795.41;;;1.02;79.90
74675;BME280;63200;48.810;12.352;2022-11-22T06:41:48;95782.84;;;0.97;80.20
74675;BME280;63200;48.810;12.352;2022-11-22T06:44:13;95784.72;;;0.97;80.37
74675;BME280;63200;48.810;12.352;2022-11-22T06:46:38;95794.34;;;0.98;80.27
74675;BME280;63200;48.810;12.352;2022-11-22T06:49:04;95798.09;;;1.02;80.36
74675;BME280;63200;48.810;12.352;2022-11-22T06:51:30;95793.28;;;1.04;80.27
74675;BME280;63200;48.810;12.352;2022-11-22T06:53:56;95800.25;;;1.15;80.29
74675;BME280;63200;48.810;12.352;2022-11-22T06:56:35;95803.72;;;1.21;80.37
74675;BME280;63200;48.810;12.352;2022-11-22T06:59:02;95810.41;;;1.24;79.66
74675;BME280;63200;48.810;12.352;2022-11-22T07:01:28;95807.75;;;1.29;80.05
74675;BME280;63200;48.810;12.352;2022-11-22T07:03:55;95814.69;;;1.30;79.88
74675;BME280;63200;48.810;12.352;2022-11-22T07:06:23;95794.63;;;1.17;79.99
74675;BME280;63200;48.810;12.352;2022-11-22T07:08:49;95826.75;;;1.38;79.51
74675;BME280;63200;48.810;12.352;2022-11-22T07:11:17;95827.53;;;1.43;80.25
74675;BME280;63200;48.810;12.352;2022-11-22T07:13:42;95827.53;;;1.43;79.52
74675;BME280;63200;48.810;12.352;2022-11-22T07:16:10;95821.94;;;1.45;79.87
74675;BME280;63200;48.810;12.352;2022-11-22T07:18:35;95787.97;;;1.25;80.00
74675;BME280;63200;48.810;12.352;2022-11-22T07:21:05;95833.41;;;1.56;79.86
74675;BME280;63200;48.810;12.352;2022-11-22T07:23:31;95838.78;;;1.56;79.34
74675;BME280;63200;48.810;12.352;2022-11-22T07:25:56;95855.38;;;1.58;79.22
74675;BME280;63200;48.810;12.352;2022-11-22T07:28:22;95844.91;;;1.61;79.46
74675;BME280;63200;48.810;12.352;2022-11-22T07:30:48;95830.75;;;1.56;79.30
74675;BME280;63200;48.810;12.352;2022-11-22T07:33:13;95831.81;;;1.60;79.60
74675;BME280;63200;48.810;12.352;2022-11-22T07:35:38;95814.19;;;1.48;79.54
74675;BME280;63200;48.810;12.352;2022-11-22T07:38:04;95815.25;;;1.47;79.10
74675;BME280;63200;48.810;12.352;2022-11-22T07:40:29;95868.47;;;1.80;79.21
74675;BME280;63200;48.810;12.352;2022-11-22T07:42:55;95816.84;;;1.48;79.16
74675;BME280;63200;48.810;12.352;2022-11-22T07:45:20;95862.31;;;1.79;79.99
74675;BME280;63200;48.810;12.352;2022-11-22T07:47:45;95863.66;;;1.82;79.30
74675;BME280;63200;48.810;12.352;2022-11-22T07:50:11;95822.22;;;1.59;79.74
74675;BME280;63200;48.810;12.352;2022-11-22T07:52:36;95867.66;;;1.85;79.36
74675;BME280;63200;48.810;12.352;2022-11-22T07:55:02;95867.38;;;1.76;79.63
74675;BME280;63200;48.810;12.352;2022-11-22T07:57:28;95824.34;;;1.57;79.20
74675;BME280;63200;48.810;12.352;2022-11-22T07:59:54;95855.09;;;1.80;78.74
74675;BME280;63200;48.810;12.352;2022-11-22T08:02:19;95857.78;;;1.70;78.98
74675;BME280;63200;48.810;12.352;2022-11-22T08:04:44;95890.69;;;1.96;79.05
74675;BME280;63200;48.810;12.352;2022-11-22T08:07:10;95884.78;;;1.99;79.08
74675;BME280;63200;48.810;12.352;2022-11-22T08:09:35;95876.75;;;1.83;78.82
74675;BME280;63200;48.810;12.352;2022-11-22T08:12:01;95900.84;;;1.99;78.96
74675;BME280;63200;48.810;12.352;2022-11-22T08:14:27;95913.41;;;2.04;79.19
74675;BME280;63200;48.810;12.352;2022-11-22T08:16:52;95915.84;;;2.05;79.72
74675;BME280;63200;48.810;12.352;2022-11-22T08:19:18;95908.88;;;2.04;78.84
74675;BME280;63200;48.810;12.352;2022-11-22T08:21:44;95906.72;;;2.06;79.83
74675;BME280;63200;48.810;12.352;2022-11-22T08:24:09;95914.50;;;2.03;79.15
74675;BME280;63200;48.810;12.352;2022-11-22T08:26:35;95920.38;;;1.94;79.55
74675;BME280;63200;48.810;12.352;2022-11-22T08:29:03;95903.25;;;1.85;79.27
74675;BME280;63200;48.810;12.352;2022-11-22T08:31:29;95920.91;;;1.91;79.67
74675;BME280;63200;48.810;12.352;2022-11-22T08:33:54;95904.34;;;1.84;79.08
74675;BME280;63200;48.810;12.352;2022-11-22T08:36:20;95929.50;;;1.98;79.19
74675;BME280;63200;48.810;12.352;2022-11-22T08:38:45;95937.78;;;1.97;79.60
74675;BME280;63200;48.810;12.352;2022-11-22T08:41:11;95942.59;;;1.95;79.65
74675;BME280;63200;48.810;12.352;2022-11-22T08:43:37;95920.91;;;1.76;79.61
74675;BME280;63200;48.810;12.352;2022-11-22T08:46:02;95955.44;;;1.98;79.55
74675;BME280;63200;48.810;12.352;2022-11-22T08:48:30;95958.91;;;2.04;79.89
74675;BME280;63200;48.810;12.352;2022-11-22T08:51:01;95958.13;;;2.03;79.52
74675;BME280;63200;48.810;12.352;2022-11-22T08:53:27;95938.03;;;1.95;79.39
74675;BME280;63200;48.810;12.352;2022-11-22T08:55:54;95961.88;;;2.07;79.70
74675;BME280;63200;48.810;12.352;2022-11-22T08:58:20;95899.50;;;1.76;79.28
74675;BME280;63200;48.810;12.352;2022-11-22T09:00:46;95939.13;;;2.15;79.55
74675;BME280;63200;48.810;12.352;2022-11-22T09:03:11;95915.56;;;2.07;79.33
74675;BME280;63200;48.810;12.352;2022-11-22T09:05:37;95934.84;;;2.29;79.08
74675;BME280;63200;48.810;12.352;2022-11-22T09:08:02;95934.03;;;2.29;79.00
74675;BME280;63200;48.810;12.352;2022-11-22T09:10:28;95950.63;;;2.46;79.04
74675;BME280;63200;48.810;12.352;2022-11-22T09:12:53;95968.00;;;2.59;78.63
74675;BME280;63200;48.810;12.352;2022-11-22T09:15:18;95969.88;;;2.69;78.98
74675;BME280;63200;48.810;12.352;2022-11-22T09:17:44;95962.63;;;2.70;78.50
74675;BME280;63200;48.810;12.352;2022-11-22T09:20:10;95970.94;;;2.73;78.85
74675;BME280;63200;48.810;12.352;2022-11-22T09:22:36;95973.59;;;2.78;79.15
74675;BME280;63200;48.810;12.352;2022-11-22T09:25:03;95946.03;;;2.57;79.17
74675;BME280;63200;48.810;12.352;2022-11-22T09:27:29;95948.94;;;2.71;78.71
74675;BME280;63200;48.810;12.352;2022-11-22T09:29:55;95992.34;;;2.89;78.65
74675;BME280;63200;48.810;12.352;2022-11-22T09:32:20;95980.53;;;2.90;78.75
74675;BME280;63200;48.810;12.352;2022-11-22T09:34:46;95978.94;;;2.89;79.14
74675;BME280;63200;48.810;12.352;2022-11-22T09:37:11;95951.88;;;2.75;78.56
74675;BME280;63200;48.810;12.352;2022-11-22T09:39:38;95974.88;;;3.02;78.36
74675;BME280;63200;48.810;12.352;2022-11-22T09:52:51;95974.84;;;3.07;78.34
74675;BME280;63200;48.810;12.352;2022-11-22T09:55:44;95993.06;;;3.15;78.31
74675;BME280;63200;48.810;12.352;2022-11-22T09:58:32;95993.09;;;3.10;78.25
74675;BME280;63200;48.810;12.352;2022-11-22T10:01:07;95987.16;;;3.13;78.04
74675;BME280;63200;48.810;12.352;2022-11-22T10:03:54;95994.34;;;3.28;78.28
74675;BME280;63200;48.810;12.352;2022-11-22T10:06:26;95978.81;;;3.25;78.08
74675;BME280;63200;48.810;12.352;2022-11-22T10:11:39;95988.31;;;3.62;77.07
74675;BME280;63200;48.810;12.352;2022-11-22T10:14:27;95995.16;;;3.83;76.67
74675;BME280;63200;48.810;12.352;2022-11-22T10:17:02;95994.63;;;3.87;75.83
74675;BME280;63200;48.810;12.352;2022-11-22T10:19:37;96002.56;;;4.02;76.13
74675;BME280;63200;48.810;12.352;2022-11-22T10:22:13;95992.28;;;4.14;75.36
74675;BME280;63200;48.810;12.352;2022-11-22T10:24:39;95982.66;;;4.08;74.96
74675;BME280;63200;48.810;12.352;2022-11-22T10:27:11;95991.69;;;4.23;74.97
74675;BME280;63200;48.810;12.352;2022-11-22T10:29:55;95998.28;;;4.41;74.57
74675;BME280;63200;48.810;12.352;2022-11-22T10:32:33;95997.38;;;4.50;73.55
74675;BME280;63200;48.810;12.352;2022-11-22T10:37:54;95999.16;;;4.60;73.54
74675;BME280;63200;48.810;12.352;2022-11-22T10:49:22;96005.75;;;4.78;73.53
74675;BME280;63200;48.810;12.352;2022-11-22T10:52:00;96008.91;;;4.86;73.35
74675;BME280;63200;48.810;12.352;2022-11-22T11:05:48;95996.75;;;4.88;73.65
74675;BME280;63200;48.810;12.352;2022-11-22T11:09:04;95997.97;;;5.01;72.99
74675;BME280;63200;48.810;12.352;2022-11-22T11:11:12;95996.06;;;5.07;72.99
74675;BME280;63200;48.810;12.352;2022-11-22T11:13:49;96007.56;;;5.12;72.82
74675;BME280;63200;48.810;12.352;2022-11-22T11:16:22;96000.22;;;4.94;73.33
74675;BME280;63200;48.810;12.352;2022-11-22T11:21:30;95985.06;;;5.03;72.17
74675;BME280;63200;48.810;12.352;2022-11-22T11:23:55;95989.03;;;5.11;72.39
74675;BME280;63200;48.810;12.352;2022-11-22T11:26:28;96009.63;;;5.21;73.01
74675;BME280;63200;48.810;12.352;2022-11-22T11:31:43;96001.50;;;5.02;73.79
74675;BME280;63200;48.810;12.352;2022-11-22T11:34:23;95989.13;;;5.00;73.92
74675;BME280;63200;48.810;12.352;2022-11-22T11:36:49;95953.63;;;4.74;73.92
74675;BME280;63200;48.810;12.352;2022-11-22T11:39:31;95983.41;;;5.07;73.93
74675;BME280;63200;48.810;12.352;2022-11-22T11:41:57;95974.53;;;5.31;73.23
74675;BME280;63200;48.810;12.352;2022-11-22T11:46:56;95979.97;;;5.26;72.77
74675;BME280;63200;48.810;12.352;2022-11-22T11:49:36;95953.34;;;5.24;72.13
74675;BME280;63200;48.810;12.352;2022-11-22T11:52:03;95989.09;;;5.49;72.48
74675;BME280;63200;48.810;12.352;2022-11-22T11:54:40;95996.75;;;5.61;71.79
74675;BME280;63200;48.810;12.352;2022-11-22T11:57:14;95994.88;;;5.61;71.87
74675;BME280;63200;48.810;12.352;2022-11-22T12:02:12;95989.25;;;5.39;72.50
74675;BME280;63200;48.810;12.352;2022-11-22T12:07:26;95982.56;;;5.55;72.00
74675;BME280;63200;48.810;12.352;2022-11-22T12:09:53;95992.31;;;5.70;70.97
74675;BME280;63200;48.810;12.352;2022-11-22T12:12:45;95985.84;;;5.71;70.50
74675;BME280;63200;48.810;12.352;2022-11-22T12:15:55;95987.69;;;5.76;70.97
74675;BME280;63200;48.810;12.352;2022-11-22T12:18:26;95988.56;;;5.90;70.97
74675;BME280;63200;48.810;12.352;2022-11-22T12:24:14;95980.03;;;5.64;71.34
74675;BME280;63200;48.810;12.352;2022-11-22T12:26:42;95955.75;;;5.26;72.44
74675;BME280;63200;48.810;12.352;2022-11-22T12:29:10;95969.66;;;5.33;72.48
74675;BME280;63200;48.810;12.352;2022-11-22T12:34:25;95964.16;;;5.19;72.23
74675;BME280;63200;48.810;12.352;2022-11-22T12:37:09;95972.53;;;5.17;72.71
74675;BME280;63200;48.810;12.352;2022-11-22T12:39:40;95973.72;;;5.30;73.13
74675;BME280;63200;48.810;12.352;2022-11-22T12:42:17;95975.72;;;5.44;72.76
74675;BME280;63200;48.810;12.352;2022-11-22T12:44:51;95972.22;;;5.43;72.30
74675;BME280;63200;48.810;12.352;2022-11-22T12:47:21;95965.31;;;5.37;72.27
74675;BME280;63200;48.810;12.352;2022-11-22T12:49:53;95975.19;;;5.42;72.51
74675;BME280;63200;48.810;12.352;2022-11-22T12:52:33;95975.44;;;5.45;72.58
74675;BME280;63200;48.810;12.352;2022-11-22T12:55:25;95970.41;;;5.58;72.71
74675;BME280;63200;48.810;12.352;2022-11-22T13:00:34;95980.63;;;5.80;71.65
74675;BME280;63200;48.810;12.352;2022-11-22T13:03:07;95975.44;;;5.64;71.99
74675;BME280;63200;48.810;12.352;2022-11-22T13:05:42;95970.66;;;5.61;72.64
74675;BME280;63200;48.810;12.352;2022-11-22T13:08:18;95962.75;;;5.46;72.74
74675;BME280;63200;48.810;12.352;2022-11-22T13:11:22;95977.84;;;5.66;72.67
74675;BME280;63200;48.810;12.352;2022-11-22T13:13:52;95980.75;;;5.70;72.67
74675;BME280;63200;48.810;12.352;2022-11-22T13:16:18;95955.06;;;5.58;72.32
74675;BME280;63200;48.810;12.352;2022-11-22T13:18:55;95970.06;;;5.64;71.99
74675;BME280;63200;48.810;12.352;2022-11-22T13:22:14;95970.22;;;5.73;71.69
74675;BME280;63200;48.810;12.352;2022-11-22T13:27:30;95956.47;;;5.75;72.28
74675;BME280;63200;48.810;12.352;2022-11-22T13:29:59;95941.91;;;5.57;72.48
74675;BME280;63200;48.810;12.352;2022-11-22T13:32:30;95954.56;;;5.75;72.45
74675;BME280;63200;48.810;12.352;2022-11-22T13:35:30;95956.75;;;5.73;71.65
74675;BME280;63200;48.810;12.352;2022-11-22T13:38:02;95955.66;;;5.55;72.80
74675;BME280;63200;48.810;12.352;2022-11-22T13:40:31;95951.09;;;5.56;73.00
74675;BME280;63200;48.810;12.352;2022-11-22T13:45:53;95959.06;;;5.61;72.89
74675;BME280;63200;48.810;12.352;2022-11-22T13:51:04;95965.63;;;5.55;73.67
74675;BME280;63200;48.810;12.352;2022-11-22T13:53:32;95961.69;;;5.66;72.56
74675;BME280;63200;48.810;12.352;2022-11-22T13:59:14;95975.44;;;5.45;73.35
74675;BME280;63200;48.810;12.352;2022-11-22T14:06:46;95971.91;;;5.26;74.44
74675;BME280;63200;48.810;12.352;2022-11-22T14:15:05;95987.25;;;5.25;74.26
74675;BME280;63200;48.810;12.352;2022-11-22T14:20:28;95976.66;;;5.10;75.03
74675;BME280;63200;48.810;12.352;2022-11-22T14:23:03;95968.19;;;4.97;75.20
74675;BME280;63200;48.810;12.352;2022-11-22T14:28:18;95976.16;;;4.78;76.25
74675;BME280;63200;48.810;12.352;2022-11-22T14:30:50;95977.06;;;4.69;76.31
74675;BME280;63200;48.810;12.352;2022-11-22T14:33:18;95976.91;;;4.55;77.07
74675;BME280;63200;48.810;12.352;2022-11-22T14:38:49;95961.75;;;4.40;77.27
74675;BME280;63200;48.810;12.352;2022-11-22T14:41:29;95976.25;;;4.39;77.78
74675;BME280;63200;48.810;12.352;2022-11-22T14:44:18;95945.31;;;4.12;77.66